地図

経路データ

SID SEASON NUMBER BASIN SUBBASIN NAME ISO_TIME NATURE LAT LON WMO_WIND WMO_PRES WMO_AGENCY TRACK_TYPE DIST2LAND LANDFALL IFLAG USA_AGENCY USA_ATCF_ID USA_LAT USA_LON USA_RECORD USA_STATUS USA_WIND USA_PRES USA_SSHS USA_R34_NE USA_R34_SE USA_R34_SW USA_R34_NW USA_R50_NE USA_R50_SE USA_R50_SW USA_R50_NW USA_R64_NE USA_R64_SE USA_R64_SW USA_R64_NW USA_POCI USA_ROCI USA_RMW USA_EYE TOKYO_LAT TOKYO_LON TOKYO_GRADE TOKYO_WIND TOKYO_PRES TOKYO_R50_DIR TOKYO_R50_LONG TOKYO_R50_SHORT TOKYO_R30_DIR TOKYO_R30_LONG TOKYO_R30_SHORT TOKYO_LAND CMA_LAT CMA_LON CMA_CAT CMA_WIND CMA_PRES HKO_LAT HKO_LON HKO_CAT HKO_WIND HKO_PRES NEWDELHI_LAT NEWDELHI_LON NEWDELHI_GRADE NEWDELHI_WIND NEWDELHI_PRES NEWDELHI_CI NEWDELHI_DP NEWDELHI_POCI REUNION_LAT REUNION_LON REUNION_TYPE REUNION_WIND REUNION_PRES REUNION_TNUM REUNION_CI REUNION_RMW REUNION_R34_NE REUNION_R34_SE REUNION_R34_SW REUNION_R34_NW REUNION_R50_NE REUNION_R50_SE REUNION_R50_SW REUNION_R50_NW REUNION_R64_NE REUNION_R64_SE REUNION_R64_SW REUNION_R64_NW BOM_LAT BOM_LON BOM_TYPE BOM_WIND BOM_PRES BOM_TNUM BOM_CI BOM_RMW BOM_R34_NE BOM_R34_SE BOM_R34_SW BOM_R34_NW BOM_R50_NE BOM_R50_SE BOM_R50_SW BOM_R50_NW BOM_R64_NE BOM_R64_SE BOM_R64_SW BOM_R64_NW BOM_ROCI BOM_POCI BOM_EYE BOM_POS_METHOD BOM_PRES_METHOD NADI_LAT NADI_LON NADI_CAT NADI_WIND NADI_PRES WELLINGTON_LAT WELLINGTON_LON WELLINGTON_WIND WELLINGTON_PRES DS824_LAT DS824_LON DS824_STAGE DS824_WIND DS824_PRES TD9636_LAT TD9636_LON TD9636_STAGE TD9636_WIND TD9636_PRES TD9635_LAT TD9635_LON TD9635_WIND TD9635_PRES TD9635_ROCI NEUMANN_LAT NEUMANN_LON NEUMANN_CLASS NEUMANN_WIND NEUMANN_PRES MLC_LAT MLC_LON MLC_CLASS MLC_WIND MLC_PRES USA_GUST BOM_GUST BOM_GUST_PER REUNION_GUST REUNION_GUST_PER USA_SEAHGT USA_SEARAD_NE USA_SEARAD_SE USA_SEARAD_SW USA_SEARAD_NW STORM_SPEED STORM_DIR
1946255N24281 1946 54 NA NA NOT_NAMED 1946-09-12 00:00:00 TS 23.5000 -79.0000 35 hurdat_atl main 108 108 O_____________ hurdat_atl AL041946 23.5000 -79.0000 TS 35 0 6 329
1946255N24281 1946 54 NA NA NOT_NAMED 1946-09-12 03:00:00 TS 23.7528 -79.1674 main 114 97 P_____________ AL041946 23.7528 -79.1674 TS 37 0 5 340
1946255N24281 1946 54 NA NA NOT_NAMED 1946-09-12 06:00:00 TS 24.0000 -79.2000 40 hurdat_atl main 97 67 O_____________ hurdat_atl AL041946 24.0000 -79.2000 TS 40 0 5 16
1946255N24281 1946 54 NA NA NOT_NAMED 1946-09-12 09:00:00 TS 24.2418 -79.0096 main 67 23 P_____________ AL041946 24.2418 -79.0096 TS 45 0 7 42
1946255N24281 1946 54 NA NA NOT_NAMED 1946-09-12 12:00:00 TS 24.5000 -78.7000 50 hurdat_atl main 23 10 O_____________ hurdat_atl AL041946 24.5000 -78.7000 TS 50 0 7 45
1946255N24281 1946 54 NA NA NOT_NAMED 1946-09-12 15:00:00 TS 24.7253 -78.4740 main 11 10 P_____________ AL041946 24.7253 -78.4740 TS 52 0 8 42
1946255N24281 1946 54 NA NA NOT_NAMED 1946-09-12 17:00:00 TS 25.0000 -78.2000 55 hurdat_atl main 10 0 O_____________ hurdat_atl AL041946 25.0000 -78.2000 L TS 55 0 13 42
1946255N24281 1946 54 NA NA NOT_NAMED 1946-09-12 18:00:00 TS 25.2000 -78.0000 55 hurdat_atl main 11 11 O_____________ hurdat_atl AL041946 25.2000 -78.0000 TS 55 0 14 42
1946255N24281 1946 54 NA NA NOT_NAMED 1946-09-12 21:00:00 TS 25.6712 -77.5286 main 83 83 P_____________ AL041946 25.6712 -77.5286 TS 60 0 11 42
1946255N24281 1946 54 NA NA NOT_NAMED 1946-09-12 23:00:00 TS 25.9000 -77.3000 65 hurdat_atl main 113 113 O_____________ hurdat_atl AL041946 25.9000 -77.3000 L TS 65 1 9 42
1946255N24281 1946 54 NA NA NOT_NAMED 1946-09-13 00:00:00 TS 26.0000 -77.2000 65 hurdat_atl main 128 128 O_____________ hurdat_atl AL041946 26.0000 -77.2000 HU 65 1 10 41
1946255N24281 1946 54 NA NA NOT_NAMED 1946-09-13 03:00:00 TS 26.4095 -76.8025 main 188 188 P_____________ AL041946 26.4095 -76.8025 HU 70 1 12 42
1946255N24281 1946 54 NA NA NOT_NAMED 1946-09-13 06:00:00 TS 26.9000 -76.3000 75 hurdat_atl main 263 263 O_____________ hurdat_atl AL041946 26.9000 -76.3000 HU 75 1 13 45
1946255N24281 1946 54 NA NA NOT_NAMED 1946-09-13 09:00:00 TS 27.3122 -75.7862 main 329 329 P_____________ AL041946 27.3122 -75.7862 HU 80 1 13 47
1946255N24281 1946 54 NA NA NOT_NAMED 1946-09-13 12:00:00 TS 27.8000 -75.2000 85 hurdat_atl main 410 410 O_____________ hurdat_atl AL041946 27.8000 -75.2000 HU 85 2 16 45
1946255N24281 1946 54 NA NA NOT_NAMED 1946-09-13 15:00:00 TS 28.4476 -74.5149 main 506 506 P_____________ AL041946 28.4476 -74.5149 HU 85 2 19 41
1946255N24281 1946 54 NA NA NOT_NAMED 1946-09-13 18:00:00 TS 29.2000 -73.8000 85 975 hurdat_atl main 617 617 O_____________ hurdat_atl AL041946 29.2000 -73.8000 HU 85 975 2 19 39
1946255N24281 1946 54 NA NA NOT_NAMED 1946-09-13 21:00:00 TS 29.9622 -73.1338 main 613 573 P_____________ AL041946 29.9622 -73.1338 HU 82 1 20 35
1946255N24281 1946 54 NA NA NOT_NAMED 1946-09-14 00:00:00 TS 30.8000 -72.5000 80 hurdat_atl main 573 541 O_____________ hurdat_atl AL041946 30.8000 -72.5000 HU 80 1 21 32
1946255N24281 1946 54 NA NA NOT_NAMED 1946-09-14 03:00:00 TS 31.7122 -71.8839 main 541 517 P_____________ AL041946 31.7122 -71.8839 HU 80 1 22 28
1946255N24281 1946 54 NA NA NOT_NAMED 1946-09-14 06:00:00 TS 32.7000 -71.3000 80 hurdat_atl main 517 488 O_____________ hurdat_atl AL041946 32.7000 -71.3000 HU 80 1 22 25
1946255N24281 1946 54 NA NA NOT_NAMED 1946-09-14 09:00:00 TS 33.7346 -70.7484 main 496 483 P_____________ AL041946 33.7346 -70.7484 HU 77 1 23 24
1946255N24281 1946 54 NA NA NOT_NAMED 1946-09-14 12:00:00 TS 34.8000 -70.2000 75 hurdat_atl main 492 489 O_____________ hurdat_atl AL041946 34.8000 -70.2000 HU 75 1 23 24
1946255N24281 1946 54 NA NA NOT_NAMED 1946-09-14 15:00:00 TS 35.8495 -69.6278 main 530 530 P_____________ AL041946 35.8495 -69.6278 HU 72 1 23 25
1946255N24281 1946 54 NA NA NOT_NAMED 1946-09-14 18:00:00 TS 36.9000 -69.0000 70 hurdat_atl main 532 447 O_____________ hurdat_atl AL041946 36.9000 -69.0000 HU 70 1 24 27
1946255N24281 1946 54 NA NA NOT_NAMED 1946-09-14 21:00:00 TS 37.9574 -68.2715 main 436 371 P_____________ AL041946 37.9574 -68.2715 HU 65 1 24 29
1946255N24281 1946 54 NA NA NOT_NAMED 1946-09-15 00:00:00 TS 39.0000 -67.5000 60 hurdat_atl main 367 328 O_____________ hurdat_atl AL041946 39.0000 -67.5000 TS 60 0 24 30
1946255N24281 1946 54 NA NA NOT_NAMED 1946-09-15 03:00:00 TS 40.0065 -66.7691 main 328 290 P_____________ AL041946 40.0065 -66.7691 TS 57 0 23 30
1946255N24281 1946 54 NA NA NOT_NAMED 1946-09-15 06:00:00 ET 41.0000 -66.0000 55 hurdat_atl main 279 167 O_____________ hurdat_atl AL041946 41.0000 -66.0000 EX 55 -4 23 31
1946255N24281 1946 54 NA NA NOT_NAMED 1946-09-15 09:00:00 ET 42.0130 -65.1857 main 167 104 P_____________ AL041946 42.0130 -65.1857 EX 52 -4 24 34
1946255N24281 1946 54 NA NA NOT_NAMED 1946-09-15 12:00:00 ET 43.0000 -64.2000 50 hurdat_atl main 101 73 O_____________ hurdat_atl AL041946 43.0000 -64.2000 EX 50 -4 25 41
1946255N24281 1946 54 NA NA NOT_NAMED 1946-09-15 15:00:00 ET 43.9223 -62.9375 main 78 32 P_____________ AL041946 43.9223 -62.9375 EX 50 -4 26 47
1946255N24281 1946 54 NA NA NOT_NAMED 1946-09-15 18:00:00 ET 44.8000 -61.5000 50 hurdat_atl main 34 13 O_____________ hurdat_atl AL041946 44.8000 -61.5000 EX 50 -4 26 50
1946255N24281 1946 54 NA NA NOT_NAMED 1946-09-15 21:00:00 ET 45.6148 -60.1069 main 19 13 P_____________ AL041946 45.6148 -60.1069 EX 50 -4 27 51
1946255N24281 1946 54 NA NA NOT_NAMED 1946-09-16 00:00:00 ET 46.5000 -58.5000 50 hurdat_atl main 104 0 O_____________ hurdat_atl AL041946 46.5000 -58.5000 EX 50 -4 32 51
1946255N24281 1946 54 NA NA NOT_NAMED 1946-09-16 03:00:00 ET 47.6554 -56.4234 main 0 0 P_____________ AL041946 47.6554 -56.4234 EX 50 -4 36 53
1946255N24281 1946 54 NA NA NOT_NAMED 1946-09-16 06:00:00 ET 48.7000 -54.2000 50 hurdat_atl main 0 0 O_____________ hurdat_atl AL041946 48.7000 -54.2000 EX 50 -4 32 59
1946255N24281 1946 54 NA NA NOT_NAMED 1946-09-16 09:00:00 ET 49.3301 -52.2374 main 93 93 P_____________ AL041946 49.3301 -52.2374 EX 47 -4 27 68
1946255N24281 1946 54 NA NA NOT_NAMED 1946-09-16 12:00:00 ET 49.7000 -50.4000 45 hurdat_atl main 227 227 O_____________ hurdat_atl AL041946 49.7000 -50.4000 EX 45 -4 24 75
1946255N24281 1946 54 NA NA NOT_NAMED 1946-09-16 15:00:00 ET 49.9489 -48.5791 main 354 354 P_____________ AL041946 49.9489 -48.5791 EX 45 -4 23 80
1946255N24281 1946 54 NA NA NOT_NAMED 1946-09-16 18:00:00 ET 50.1000 -46.8000 45 hurdat_atl main 481 481 O_____________ hurdat_atl AL041946 50.1000 -46.8000 EX 45 -4 23 83
1946255N24281 1946 54 NA NA NOT_NAMED 1946-09-16 21:00:00 ET 50.2454 -45.0341 main 606 606 P_____________ AL041946 50.2454 -45.0341 EX 45 -4 23 83
1946255N24281 1946 54 NA NA NOT_NAMED 1946-09-17 00:00:00 ET 50.4000 -43.2000 45 hurdat_atl main 735 735 O_____________ hurdat_atl AL041946 50.4000 -43.2000 EX 45 -4 25 83
1946255N24281 1946 54 NA NA NOT_NAMED 1946-09-17 03:00:00 ET 50.5684 -41.1840 main 877 877 P_____________ AL041946 50.5684 -41.1840 EX 45 -4 26 81
1946255N24281 1946 54 NA NA NOT_NAMED 1946-09-17 06:00:00 ET 50.8000 -39.1000 45 hurdat_atl main 1026 1026 O_____________ hurdat_atl AL041946 50.8000 -39.1000 EX 45 -4 26 78
1946255N24281 1946 54 NA NA NOT_NAMED 1946-09-17 09:00:00 ET 51.1000 -37.0758 main 1064 1062 P_____________ AL041946 51.1000 -37.0758 EX 42 -4 27 75
1946255N24281 1946 54 NA NA NOT_NAMED 1946-09-17 12:00:00 ET 51.5000 -35.0000 40 hurdat_atl main 1075 1075 O_____________ hurdat_atl AL041946 51.5000 -35.0000 EX 40 -4 28 72
1946255N24281 1946 54 NA NA NOT_NAMED 1946-09-17 15:00:00 ET 51.9873 -32.8024 main 1097 1097 P_____________ AL041946 51.9873 -32.8024 EX 37 -4 29 70
1946255N24281 1946 54 NA NA NOT_NAMED 1946-09-17 18:00:00 ET 52.5000 -30.5000 35 hurdat_atl main 1139 O_____________ hurdat_atl AL041946 52.5000 -30.5000 EX 35 -4 30 70

IBTrACS Databaseについて

本データベースは、米国NOAAが公開する1842年以降の世界の熱帯低気圧のベストトラックデータアーカイブInternational Best Track Archive for Climate Stewardship (IBTrACS)を、ウェブで閲覧しやすい形式に変換したものです。

最終更新日:2021-11-26